createdAt,value
2022-08-06T00:00:07.854Z,22.89
2022-08-06T00:03:00.207Z,22.88
2022-08-06T00:05:34.936Z,22.89
2022-08-06T00:08:06.285Z,22.89
2022-08-06T00:10:35.483Z,22.87
2022-08-06T00:13:05.417Z,22.87
2022-08-06T00:16:09.134Z,22.87
2022-08-06T00:18:24.290Z,22.84
2022-08-06T00:20:53.628Z,22.82
2022-08-06T00:23:23.609Z,22.82
2022-08-06T00:25:54.654Z,22.81
2022-08-06T00:28:30.625Z,22.81
2022-08-06T00:31:06.122Z,22.80
2022-08-06T00:33:44.388Z,22.80
2022-08-06T00:36:24.859Z,22.79
2022-08-06T00:38:53.813Z,22.78
2022-08-06T00:41:27.110Z,22.78
2022-08-06T00:43:59.910Z,22.75
2022-08-06T00:46:31.012Z,22.72
2022-08-06T00:48:59.319Z,22.69
2022-08-06T00:51:51.463Z,22.68
2022-08-06T00:54:28.934Z,22.64
2022-08-06T00:57:08.003Z,22.60
2022-08-06T00:59:40.662Z,22.54
2022-08-06T01:02:14.550Z,22.48
2022-08-06T01:04:43.388Z,22.43
2022-08-06T01:07:12.099Z,22.37
2022-08-06T01:09:46.071Z,22.32
2022-08-06T01:12:33.405Z,22.24
2022-08-06T01:15:16.255Z,22.19
2022-08-06T01:18:01.567Z,22.15
2022-08-06T01:21:56.515Z,22.08
2022-08-06T01:23:59.118Z,22.00
2022-08-06T01:26:54.408Z,21.93
2022-08-06T01:29:36.166Z,21.86
2022-08-06T01:32:09.509Z,21.81
2022-08-06T01:34:47.345Z,21.73
2022-08-06T01:37:38.890Z,21.66
2022-08-06T01:40:14.229Z,21.56
2022-08-06T01:42:45.765Z,21.49
2022-08-06T01:45:42.369Z,21.44
2022-08-06T01:48:28.888Z,21.38
2022-08-06T01:51:02.928Z,21.33
2022-08-06T01:54:05.998Z,21.30
2022-08-06T01:56:30.875Z,21.25
2022-08-06T01:59:04.452Z,21.22
2022-08-06T02:01:53.422Z,21.21
2022-08-06T02:04:28.927Z,21.19
2022-08-06T02:07:00.545Z,21.14
2022-08-06T02:09:37.835Z,21.09
2022-08-06T02:12:17.371Z,21.05
2022-08-06T02:15:04.071Z,21.05
2022-08-06T02:18:04.357Z,21.01
2022-08-06T02:20:37.014Z,20.94
2022-08-06T02:23:10.537Z,20.89
2022-08-06T02:25:41.648Z,20.84
2022-08-06T02:28:25.173Z,20.81
2022-08-06T02:30:56.704Z,20.78
2022-08-06T02:34:01.056Z,20.77
2022-08-06T02:36:27.259Z,20.75
2022-08-06T02:39:08.354Z,20.71
2022-08-06T02:41:55.964Z,20.69
2022-08-06T02:44:35.026Z,20.63
2022-08-06T02:47:17.980Z,20.59
2022-08-06T02:49:57.811Z,20.57
2022-08-06T02:52:56.470Z,20.57
2022-08-06T02:55:35.640Z,20.58
2022-08-06T02:58:19.011Z,20.61
2022-08-06T03:00:51.944Z,20.62
2022-08-06T03:03:34.529Z,20.62
2022-08-06T03:06:07.388Z,20.61
2022-08-06T03:08:38.836Z,20.61
2022-08-06T03:11:08.731Z,20.61
2022-08-06T03:13:39.058Z,20.59
2022-08-06T03:16:23.692Z,20.57
2022-08-06T03:19:53.939Z,20.56
2022-08-06T03:21:55.538Z,20.56
2022-08-06T03:24:27.785Z,20.55
2022-08-06T03:27:00.145Z,20.54
2022-08-06T03:29:30.246Z,20.55
2022-08-06T03:32:24.761Z,20.52
2022-08-06T03:34:52.141Z,20.47
2022-08-06T03:37:45.459Z,20.45
2022-08-06T03:40:12.672Z,20.42
2022-08-06T03:42:43.996Z,20.37
2022-08-06T03:45:35.436Z,20.34
2022-08-06T03:48:07.015Z,20.31
2022-08-06T03:50:43.032Z,20.28
2022-08-06T03:53:25.048Z,20.25
2022-08-06T03:55:59.542Z,20.25
2022-08-06T03:58:29.464Z,20.23
2022-08-06T04:01:04.684Z,20.20
2022-08-06T04:03:39.693Z,20.16
2022-08-06T04:06:16.097Z,20.16
2022-08-06T04:08:46.269Z,20.13
2022-08-06T04:12:14.194Z,20.09
2022-08-06T04:14:08.531Z,20.06
2022-08-06T04:16:38.164Z,20.01
2022-08-06T04:19:15.631Z,20.03
2022-08-06T04:23:05.283Z,20.25
2022-08-06T04:24:33.547Z,20.53
2022-08-06T04:27:09.427Z,20.73
2022-08-06T04:29:56.900Z,20.88
2022-08-06T04:32:32.289Z,20.99
2022-08-06T04:36:05.831Z,21.12
2022-08-06T04:37:54.295Z,21.24
2022-08-06T04:40:34.345Z,21.23
2022-08-06T04:43:08.686Z,21.19
2022-08-06T04:46:18.586Z,21.15
2022-08-06T04:48:40.062Z,21.14
2022-08-06T04:51:10.450Z,21.14
2022-08-06T04:53:58.203Z,21.14
2022-08-06T04:56:29.863Z,21.16
2022-08-06T04:59:07.652Z,21.23
2022-08-06T05:01:40.840Z,21.22
2022-08-06T05:04:26.526Z,20.88
2022-08-06T05:07:17.172Z,20.59
2022-08-06T05:09:54.279Z,20.35
2022-08-06T05:12:39.398Z,20.20
2022-08-06T05:15:10.950Z,20.08
2022-08-06T05:17:58.041Z,20.08
2022-08-06T05:20:32.111Z,20.41
2022-08-06T05:23:20.054Z,20.72
2022-08-06T05:25:53.595Z,21.01
2022-08-06T05:28:27.193Z,21.24
2022-08-06T05:30:56.640Z,21.34
2022-08-06T05:33:38.795Z,21.12
2022-08-06T05:36:19.337Z,20.84
2022-08-06T05:38:58.552Z,20.64
2022-08-06T05:41:33.227Z,20.49
2022-08-06T05:44:03.186Z,20.39
2022-08-06T05:46:38.492Z,20.30
2022-08-06T05:49:58.241Z,20.22
2022-08-06T05:52:35.956Z,20.17
2022-08-06T05:55:11.456Z,20.12
2022-08-06T05:57:53.895Z,20.09
2022-08-06T06:00:42.265Z,20.06
2022-08-06T06:03:25.116Z,20.04
2022-08-06T06:06:15.926Z,20.03
2022-08-06T06:08:58.860Z,20.00
2022-08-06T06:11:55.166Z,19.97
2022-08-06T06:14:32.282Z,19.91
2022-08-06T06:17:39.800Z,19.88
2022-08-06T06:21:03.910Z,19.99
2022-08-06T06:23:20.334Z,20.39
2022-08-06T06:26:00.959Z,20.67
2022-08-06T06:28:47.953Z,20.90
2022-08-06T06:31:58.368Z,21.09
2022-08-06T06:34:55.544Z,21.19
2022-08-06T06:37:47.656Z,20.95
2022-08-06T06:40:34.700Z,20.74
2022-08-06T06:43:17.665Z,20.61
2022-08-06T06:46:05.365Z,20.52
2022-08-06T06:48:47.983Z,20.48
2022-08-06T06:51:57.092Z,20.47
2022-08-06T06:54:37.822Z,20.48
2022-08-06T06:57:10.821Z,20.51
2022-08-06T07:00:01.516Z,20.54
2022-08-06T07:02:35.805Z,20.55
2022-08-06T07:05:07.504Z,20.54
2022-08-06T07:07:39.537Z,20.53
2022-08-06T07:10:11.609Z,20.51
2022-08-06T07:12:43.647Z,20.49
2022-08-06T07:15:18.917Z,20.50
2022-08-06T07:17:50.634Z,20.53
2022-08-06T07:20:31.366Z,20.53
2022-08-06T07:24:08.476Z,20.57
2022-08-06T07:25:55.769Z,20.60
2022-08-06T07:28:27.946Z,20.63
2022-08-06T07:31:04.478Z,20.66
2022-08-06T07:34:01.002Z,20.71
2022-08-06T07:36:37.868Z,20.75
2022-08-06T07:39:14.400Z,20.81
2022-08-06T07:42:07.707Z,20.88
2022-08-06T07:44:54.600Z,20.96
2022-08-06T07:47:46.967Z,21.02
2022-08-06T07:50:26.863Z,21.06
2022-08-06T07:52:57.138Z,21.06
2022-08-06T07:55:36.825Z,21.03
2022-08-06T07:58:09.598Z,21.00
2022-08-06T08:00:41.167Z,20.96
2022-08-06T08:03:57.020Z,20.92
2022-08-06T08:06:26.999Z,20.90
2022-08-06T08:08:59.953Z,20.89
2022-08-06T08:11:37.612Z,20.94
2022-08-06T08:14:22.128Z,21.31
2022-08-06T08:16:51.693Z,21.66
2022-08-06T08:19:23.608Z,21.93
2022-08-06T08:21:52.835Z,22.01
2022-08-06T08:24:21.221Z,21.80
2022-08-06T08:27:04.909Z,21.57
2022-08-06T08:29:39.802Z,21.39
2022-08-06T08:32:20.496Z,21.28
2022-08-06T08:34:52.851Z,21.18
2022-08-06T08:37:22.023Z,21.11
2022-08-06T08:39:50.795Z,21.09
2022-08-06T08:42:41.000Z,21.12
2022-08-06T08:45:13.378Z,21.16
2022-08-06T08:47:57.861Z,21.21
2022-08-06T08:50:30.852Z,21.29
2022-08-06T08:53:05.471Z,21.37
2022-08-06T08:57:01.973Z,21.49
2022-08-06T08:59:01.992Z,21.63
2022-08-06T09:01:53.312Z,21.75
2022-08-06T09:04:04.885Z,21.88
2022-08-06T09:06:39.633Z,21.98
2022-08-06T09:09:16.161Z,22.04
2022-08-06T09:12:03.752Z,22.05
2022-08-06T09:14:34.379Z,22.07
2022-08-06T09:17:05.471Z,22.09
2022-08-06T09:19:42.000Z,22.07
2022-08-06T09:22:11.842Z,22.00
2022-08-06T09:24:40.523Z,21.93
2022-08-06T09:27:55.006Z,21.89
2022-08-06T09:30:25.443Z,21.86
2022-08-06T09:32:57.731Z,21.83
2022-08-06T09:35:45.042Z,21.81
2022-08-06T09:38:18.105Z,21.82
2022-08-06T09:41:07.181Z,21.87
2022-08-06T09:44:02.771Z,22.00
2022-08-06T09:46:42.197Z,22.18
2022-08-06T09:49:48.082Z,22.27
2022-08-06T09:52:17.789Z,22.33
2022-08-06T09:54:52.745Z,22.47
2022-08-06T09:57:36.346Z,22.62
2022-08-06T10:00:14.664Z,22.77
2022-08-06T10:02:51.327Z,22.89
2022-08-06T10:05:21.522Z,22.93
2022-08-06T10:08:05.883Z,22.91
2022-08-06T10:10:50.358Z,22.96
2022-08-06T10:13:39.119Z,23.15
2022-08-06T10:16:28.905Z,23.43
2022-08-06T10:19:18.944Z,23.60
2022-08-06T10:21:50.835Z,23.66
2022-08-06T10:24:25.396Z,23.68
2022-08-06T10:26:55.704Z,23.69
2022-08-06T10:29:26.286Z,23.71
2022-08-06T10:31:56.905Z,23.68
2022-08-06T10:34:31.279Z,23.54
2022-08-06T10:37:47.352Z,23.39
2022-08-06T10:40:07.555Z,23.23
2022-08-06T10:42:40.961Z,23.09
2022-08-06T10:45:16.194Z,23.01
2022-08-06T10:49:01.552Z,22.95
2022-08-06T10:50:52.437Z,22.93
2022-08-06T10:54:01.451Z,23.05
2022-08-06T10:56:18.179Z,23.30
2022-08-06T10:58:54.908Z,23.59
2022-08-06T11:01:47.013Z,23.82
2022-08-06T11:04:39.330Z,24.00
2022-08-06T11:08:09.249Z,23.97
2022-08-06T11:10:40.358Z,23.92
2022-08-06T11:13:37.587Z,24.00
2022-08-06T11:16:29.884Z,24.25
2022-08-06T11:19:06.805Z,24.54
2022-08-06T11:21:58.882Z,24.78
2022-08-06T11:24:34.246Z,24.94
2022-08-06T11:27:50.290Z,24.94
2022-08-06T11:30:26.235Z,24.82
2022-08-06T11:32:55.469Z,24.83
2022-08-06T11:35:47.385Z,24.97
2022-08-06T11:38:56.669Z,25.05
2022-08-06T11:41:50.565Z,25.01
2022-08-06T11:44:34.374Z,25.16
2022-08-06T11:47:07.769Z,25.36
2022-08-06T11:49:43.866Z,25.46
2022-08-06T11:52:34.340Z,25.57
2022-08-06T11:55:12.839Z,25.78
2022-08-06T11:58:21.256Z,26.12
2022-08-06T12:01:03.958Z,26.37
2022-08-06T12:03:52.294Z,26.49
2022-08-06T12:06:25.899Z,26.52
2022-08-06T12:09:23.414Z,26.46
2022-08-06T12:12:26.549Z,26.53
2022-08-06T12:14:57.144Z,26.67
2022-08-06T12:17:44.899Z,26.63
2022-08-06T12:20:39.174Z,26.62
2022-08-06T12:23:17.603Z,26.73
2022-08-06T12:25:48.535Z,26.86
2022-08-06T12:28:21.680Z,27.03
2022-08-06T12:30:55.085Z,27.27
2022-08-06T12:33:24.840Z,27.52
2022-08-06T12:36:02.069Z,27.54
2022-08-06T12:38:32.983Z,27.57
2022-08-06T12:41:11.038Z,27.68
2022-08-06T12:43:56.844Z,27.86
2022-08-06T12:46:29.689Z,28.26
2022-08-06T12:49:01.374Z,28.58
2022-08-06T12:51:30.219Z,28.74
2022-08-06T12:54:02.216Z,28.73
2022-08-06T12:56:37.449Z,28.71
2022-08-06T12:59:16.126Z,28.53
2022-08-06T13:02:11.827Z,28.38
2022-08-06T13:04:47.794Z,28.31
2022-08-06T13:07:20.348Z,28.27
2022-08-06T13:10:34.862Z,28.04
2022-08-06T13:14:15.039Z,27.89
2022-08-06T13:16:12.054Z,28.03
2022-08-06T13:19:19.534Z,28.17
2022-08-06T13:22:00.529Z,28.25
2022-08-06T13:24:30.611Z,28.38
2022-08-06T13:26:59.935Z,28.52
2022-08-06T13:30:34.710Z,28.60
2022-08-06T13:32:32.637Z,28.52
2022-08-06T13:35:16.949Z,28.57
2022-08-06T13:37:57.089Z,28.87
2022-08-06T13:40:47.426Z,29.06
2022-08-06T13:43:39.331Z,29.28
2022-08-06T13:46:27.457Z,29.45
2022-08-06T13:49:02.040Z,29.57
2022-08-06T13:51:34.532Z,29.71
2022-08-06T13:54:16.367Z,29.80
2022-08-06T13:56:52.145Z,29.89
2022-08-06T13:59:24.501Z,29.96
2022-08-06T14:02:11.852Z,29.98
2022-08-06T14:04:40.868Z,29.93
2022-08-06T14:07:18.116Z,29.73
2022-08-06T14:10:09.381Z,29.56
2022-08-06T14:12:34.944Z,29.48
2022-08-06T14:15:03.769Z,29.50
2022-08-06T14:17:35.167Z,29.59
2022-08-06T14:20:15.036Z,29.73
2022-08-06T14:22:48.322Z,29.96
2022-08-06T14:25:18.025Z,30.02
2022-08-06T14:27:46.313Z,30.08
2022-08-06T14:30:27.224Z,30.27
2022-08-06T14:33:10.842Z,30.52
2022-08-06T14:35:51.091Z,30.64
2022-08-06T14:38:21.800Z,30.58
2022-08-06T14:41:51.077Z,30.51
2022-08-06T14:44:29.990Z,30.52
2022-08-06T14:46:59.675Z,30.49
2022-08-06T14:49:45.686Z,30.43
2022-08-06T14:52:18.900Z,30.46
2022-08-06T14:54:55.905Z,30.51
2022-08-06T14:57:56.598Z,30.50
2022-08-06T15:00:34.849Z,30.45
2022-08-06T15:03:07.469Z,30.32
2022-08-06T15:05:41.902Z,30.21
2022-08-06T15:08:25.190Z,30.02
2022-08-06T15:10:53.875Z,29.84
2022-08-06T15:13:36.736Z,29.78
2022-08-06T15:16:10.913Z,29.82
2022-08-06T15:19:30.299Z,29.84
2022-08-06T15:21:51.071Z,29.77
2022-08-06T15:24:25.303Z,29.70
2022-08-06T15:26:56.053Z,29.57
2022-08-06T15:29:34.639Z,29.49
2022-08-06T15:32:16.987Z,29.38
2022-08-06T15:34:48.853Z,29.21
2022-08-06T15:37:53.269Z,29.08
2022-08-06T15:40:10.022Z,28.85
2022-08-06T15:42:41.785Z,28.71
2022-08-06T15:45:45.488Z,28.62
2022-08-06T15:48:05.890Z,28.47
2022-08-06T15:50:43.078Z,28.35
2022-08-06T15:53:23.407Z,28.32
2022-08-06T15:55:53.261Z,28.27
2022-08-06T15:58:28.431Z,28.27
2022-08-06T16:01:04.083Z,28.23
2022-08-06T16:03:56.399Z,28.19
2022-08-06T16:06:23.713Z,28.24
2022-08-06T16:08:54.912Z,28.29
2022-08-06T16:11:48.263Z,28.31
2022-08-06T16:14:19.556Z,28.23
2022-08-06T16:16:48.247Z,28.20
2022-08-06T16:19:21.350Z,28.12
2022-08-06T16:21:50.261Z,28.03
2022-08-06T16:24:19.279Z,27.89
2022-08-06T16:26:57.149Z,27.69
2022-08-06T16:29:26.687Z,27.53
2022-08-06T16:31:55.737Z,27.42
2022-08-06T16:34:30.013Z,27.33
2022-08-06T16:37:01.041Z,27.28
2022-08-06T16:39:36.295Z,27.27
2022-08-06T16:42:07.841Z,27.19
2022-08-06T16:44:56.683Z,26.96
2022-08-06T16:50:18.875Z,26.60
2022-08-06T16:54:14.601Z,26.50
2022-08-06T16:55:45.228Z,26.35
2022-08-06T17:02:20.876Z,26.19
2022-08-06T17:04:00.059Z,26.16
2022-08-06T17:06:31.412Z,26.15
2022-08-06T17:09:16.355Z,26.08
2022-08-06T17:11:57.496Z,26.06
2022-08-06T17:14:28.213Z,26.05
2022-08-06T17:17:00.339Z,25.93
2022-08-06T17:19:30.816Z,25.70
2022-08-06T17:22:00.637Z,25.48
2022-08-06T17:27:44.777Z,25.14
2022-08-06T17:30:12.225Z,25.03
2022-08-06T17:32:46.472Z,24.95
2022-08-06T17:35:16.549Z,24.83
2022-08-06T17:37:49.175Z,24.68
2022-08-06T17:40:31.444Z,24.49
2022-08-06T17:43:12.971Z,24.21
2022-08-06T17:46:00.237Z,23.95
2022-08-06T17:48:32.572Z,23.67
2022-08-06T17:51:09.795Z,23.34
2022-08-06T17:53:52.022Z,22.98
2022-08-06T17:56:30.471Z,22.67
2022-08-06T17:59:16.537Z,22.36
2022-08-06T18:01:49.574Z,22.04
2022-08-06T18:04:30.772Z,21.78
2022-08-06T18:07:12.241Z,21.53
2022-08-06T18:10:10.858Z,21.30
2022-08-06T18:12:48.569Z,21.05
2022-08-06T18:15:22.769Z,20.81
2022-08-06T18:18:03.711Z,20.59
2022-08-06T18:20:39.408Z,20.37
2022-08-06T18:23:21.698Z,20.17
2022-08-06T18:25:57.328Z,19.97
2022-08-06T18:28:34.587Z,19.76
2022-08-06T18:31:09.646Z,19.58
2022-08-06T18:33:46.052Z,19.46
2022-08-06T18:36:16.669Z,19.34
2022-08-06T18:38:45.726Z,19.21
2022-08-06T18:41:16.775Z,19.09
2022-08-06T18:43:54.514Z,19.00
2022-08-06T18:46:55.464Z,18.88
2022-08-06T18:49:20.472Z,18.76
2022-08-06T18:51:49.362Z,18.69
2022-08-06T18:54:23.112Z,18.61
2022-08-06T18:56:53.159Z,18.51
2022-08-06T18:59:28.649Z,18.42
2022-08-06T19:01:59.193Z,18.31
2022-08-06T19:04:29.033Z,18.21
2022-08-06T19:07:01.029Z,18.12
2022-08-06T19:09:37.007Z,18.04
2022-08-06T19:12:13.852Z,17.95
2022-08-06T19:14:50.624Z,17.87
2022-08-06T19:18:10.530Z,17.79
2022-08-06T19:20:20.178Z,17.70
2022-08-06T19:22:53.390Z,17.62
2022-08-06T19:25:28.585Z,17.54
2022-08-06T19:28:35.800Z,17.44
2022-08-06T19:31:06.214Z,17.35
2022-08-06T19:33:35.140Z,17.28
2022-08-06T19:36:09.078Z,17.23
2022-08-06T19:38:44.324Z,17.17
2022-08-06T19:41:54.836Z,17.10
2022-08-06T19:44:26.816Z,17.04
2022-08-06T19:46:56.722Z,16.96
2022-08-06T19:49:28.159Z,16.90
2022-08-06T19:52:10.327Z,16.83
2022-08-06T19:54:41.957Z,16.76
2022-08-06T19:57:13.288Z,16.69
2022-08-06T20:00:54.766Z,16.63
2022-08-06T20:02:51.315Z,16.54
2022-08-06T20:06:17.733Z,16.47
2022-08-06T20:08:32.978Z,16.38
2022-08-06T20:11:09.540Z,16.29
2022-08-06T20:13:54.700Z,16.20
2022-08-06T20:16:23.353Z,16.11
2022-08-06T20:18:52.177Z,16.04
2022-08-06T20:21:42.744Z,15.96
2022-08-06T20:24:09.416Z,15.88
2022-08-06T20:26:38.179Z,15.82
2022-08-06T20:29:34.781Z,15.77
2022-08-06T20:32:16.857Z,15.72
2022-08-06T20:34:48.251Z,15.69
2022-08-06T20:37:17.383Z,15.66
2022-08-06T20:39:48.442Z,15.65
2022-08-06T20:42:18.799Z,15.64
2022-08-06T20:44:51.884Z,15.62
2022-08-06T20:47:46.481Z,15.61
2022-08-06T20:50:11.928Z,15.58
2022-08-06T20:52:40.728Z,15.54
2022-08-06T20:55:13.964Z,15.49
2022-08-06T20:57:48.543Z,15.44
2022-08-06T21:00:27.995Z,15.38
2022-08-06T21:03:28.626Z,15.34
2022-08-06T21:05:51.100Z,15.30
2022-08-06T21:08:27.111Z,15.25
2022-08-06T21:10:58.029Z,15.20
2022-08-06T21:13:29.730Z,15.14
2022-08-06T21:16:13.339Z,15.11
2022-08-06T21:18:44.380Z,15.08
2022-08-06T21:21:16.961Z,15.05
2022-08-06T21:23:56.449Z,15.02
2022-08-06T21:26:34.824Z,14.99
2022-08-06T21:30:07.300Z,14.95
2022-08-06T21:31:56.989Z,15.01
2022-08-06T21:34:27.709Z,15.32
2022-08-06T21:36:59.139Z,15.63
2022-08-06T21:39:30.153Z,15.87
2022-08-06T21:42:17.808Z,16.06
2022-08-06T21:44:49.524Z,16.17
2022-08-06T21:47:19.525Z,15.98
2022-08-06T21:49:59.361Z,15.74
2022-08-06T21:52:35.798Z,15.52
2022-08-06T21:55:11.361Z,15.38
2022-08-06T21:57:47.605Z,15.26
2022-08-06T22:00:36.848Z,15.17
2022-08-06T22:04:35.153Z,15.09
2022-08-06T22:06:22.025Z,15.09
2022-08-06T22:08:54.295Z,15.41
2022-08-06T22:12:38.506Z,15.68
2022-08-06T22:14:15.521Z,15.86
2022-08-06T22:16:48.807Z,15.99
2022-08-06T22:19:33.427Z,16.11
2022-08-06T22:22:07.359Z,16.19
2022-08-06T22:24:37.832Z,16.26
2022-08-06T22:27:07.939Z,16.33
2022-08-06T22:30:00.558Z,16.32
2022-08-06T22:32:36.278Z,15.98
2022-08-06T22:35:09.304Z,15.68
2022-08-06T22:38:17.073Z,15.45
2022-08-06T22:40:42.284Z,15.24
2022-08-06T22:43:18.205Z,15.14
2022-08-06T22:46:02.289Z,15.35
2022-08-06T22:48:36.488Z,15.61
2022-08-06T22:51:10.891Z,15.77
2022-08-06T22:54:29.133Z,15.89
2022-08-06T22:56:38.246Z,15.98
2022-08-06T22:59:31.454Z,16.07
2022-08-06T23:02:06.143Z,16.15
2022-08-06T23:04:41.523Z,16.18
2022-08-06T23:07:33.654Z,16.21
2022-08-06T23:10:06.742Z,16.37
2022-08-06T23:12:36.703Z,16.42
2022-08-06T23:15:29.899Z,16.43
2022-08-06T23:18:00.506Z,16.60
2022-08-06T23:20:32.746Z,16.72
2022-08-06T23:23:04.751Z,16.40
2022-08-06T23:26:00.166Z,15.98
2022-08-06T23:28:22.986Z,15.61
2022-08-06T23:30:52.342Z,15.43
2022-08-06T23:33:20.728Z,15.71
2022-08-06T23:35:50.733Z,16.14
2022-08-06T23:38:32.192Z,16.43
2022-08-06T23:41:05.151Z,16.55
2022-08-06T23:43:49.533Z,16.60
2022-08-06T23:46:19.706Z,16.60
2022-08-06T23:48:56.699Z,16.61
2022-08-06T23:52:01.840Z,16.58
2022-08-06T23:54:23.388Z,16.56
2022-08-06T23:56:57.837Z,16.54
2022-08-06T23:59:44.513Z,16.53
